Time;durP1;ratioP1;P1;durP2;ratioP2;P2;SDS_P1;SDS_P2;PMS_P1;PMS_P2;Temp;Humidity;BMP_temperature;BMP_pressure;BME280_temperature;BME280_humidity;BME280_pressure;Samples;Min_cycle;Max_cycle;Signal;HPM_P1;HPM_P2
2022/07/22 00:01:02;;;;;;;8.52;4.80;;;;;;;14.87;100.00;101973.94;4997771;28;20022;-91
2022/07/22 00:03:28;;;;;;;10.40;4.72;;;;;;;14.93;100.00;101973.66;5012554;28;20026;-92
2022/07/22 00:05:53;;;;;;;7.20;4.20;;;;;;;14.93;100.00;101973.66;5008399;28;20026;-93
2022/07/22 00:08:18;;;;;;;6.55;4.32;;;;;;;14.91;100.00;101967.47;4997409;28;20500;-92
2022/07/22 00:10:44;;;;;;;5.88;4.05;;;;;;;14.96;100.00;101973.47;5020685;28;20022;-92
2022/07/22 00:13:09;;;;;;;5.70;3.30;;;;;;;14.93;100.00;101976.31;5013492;28;20495;-92
2022/07/22 00:15:34;;;;;;;5.88;3.42;;;;;;;14.92;100.00;101964.75;5008717;28;20531;-92
2022/07/22 00:18:00;;;;;;;7.40;3.30;;;;;;;14.94;100.00;101978.06;5032415;28;20026;-93
2022/07/22 00:20:25;;;;;;;8.50;3.45;;;;;;;14.91;100.00;101965.66;5009593;28;20472;-91
2022/07/22 00:22:50;;;;;;;7.45;3.78;;;;;;;14.92;100.00;101959.38;5007471;28;20045;-92
2022/07/22 00:25:16;;;;;;;7.07;3.42;;;;;;;15.00;100.00;101975.03;5001856;28;20748;-91
2022/07/22 00:27:41;;;;;;;9.32;4.10;;;;;;;14.95;100.00;101963.69;5005509;28;20029;-94
2022/07/22 00:30:07;;;;;;;6.97;3.22;;;;;;;14.99;100.00;101978.69;5010891;28;20041;-92
2022/07/22 00:32:32;;;;;;;12.07;4.20;;;;;;;14.99;100.00;101977.81;5006046;28;20037;-92
2022/07/22 00:34:58;;;;;;;10.93;4.10;;;;;;;14.99;100.00;101972.44;5009767;28;20038;-92
2022/07/22 00:37:23;;;;;;;7.05;3.60;;;;;;;15.01;100.00;101962.53;5003708;28;20026;-93
2022/07/22 00:39:49;;;;;;;10.60;4.60;;;;;;;15.00;100.00;101964.31;5003094;28;20113;-92
2022/07/22 00:42:15;;;;;;;11.27;5.90;;;;;;;15.01;100.00;101978.63;5011385;28;20439;-92
2022/07/22 00:44:40;;;;;;;10.13;5.65;;;;;;;15.05;100.00;101966.75;5002075;28;20041;-93
2022/07/22 00:47:06;;;;;;;10.57;5.57;;;;;;;15.03;100.00;101972.22;4999771;28;20030;-93
2022/07/22 00:49:31;;;;;;;8.55;6.25;;;;;;;15.05;100.00;101969.44;4998679;28;20038;-92
2022/07/22 00:51:57;;;;;;;9.77;5.53;;;;;;;15.02;100.00;101956.22;4994396;28;20041;-92
2022/07/22 00:54:22;;;;;;;11.07;7.20;;;;;;;15.02;100.00;101950.84;4990811;28;20089;-91
2022/07/22 00:56:47;;;;;;;13.80;7.53;;;;;;;15.03;100.00;101952.56;5005182;28;20022;-92
2022/07/22 00:59:13;;;;;;;17.05;11.75;;;;;;;15.05;100.00;101953.34;5000670;28;20030;-92
2022/07/22 01:01:39;;;;;;;20.67;11.05;;;;;;;15.04;100.00;101962.34;4997160;28;20026;-92
2022/07/22 01:04:04;;;;;;;17.92;11.70;;;;;;;15.04;100.00;101954.31;4994110;28;20034;-94
2022/07/22 01:06:30;;;;;;;20.25;11.73;;;;;;;15.02;100.00;101953.53;5006968;28;20188;-94
2022/07/22 01:08:56;;;;;;;18.13;9.57;;;;;;;15.05;100.00;101953.34;4999632;28;20026;-92
2022/07/22 01:11:21;;;;;;;14.45;8.20;;;;;;;15.02;100.00;101948.16;5001341;28;20032;-92
2022/07/22 01:13:48;;;;;;;16.77;8.48;;;;;;;15.07;100.00;101951.47;5006733;28;20042;-91
2022/07/22 01:16:15;;;;;;;12.27;6.90;;;;;;;15.01;100.00;101943.75;5004241;28;20045;-91
2022/07/22 01:18:41;;;;;;;12.38;7.45;;;;;;;15.01;100.00;101943.75;4993669;28;21453;-92
2022/07/22 01:21:08;;;;;;;13.20;6.18;;;;;;;15.00;100.00;101944.69;5021088;28;20040;-91
2022/07/22 01:23:34;;;;;;;12.68;6.13;;;;;;;14.98;100.00;101933.19;5007687;28;20030;-91
2022/07/22 01:26:00;;;;;;;11.82;6.20;;;;;;;15.01;100.00;101941.09;4998711;28;20037;-91
2022/07/22 01:28:26;;;;;;;9.30;5.72;;;;;;;15.03;100.00;101940.03;5000690;28;20030;-90
2022/07/22 01:30:51;;;;;;;10.70;5.43;;;;;;;15.03;100.00;101936.50;5001180;28;20040;-91
2022/07/22 01:33:18;;;;;;;12.15;6.03;;;;;;;15.02;100.00;101943.66;5021926;28;20382;-93
2022/07/22 01:35:44;;;;;;;9.55;5.18;;;;;;;15.02;100.00;101951.72;5009624;28;20038;-92
2022/07/22 01:38:09;;;;;;;16.73;5.32;;;;;;;15.01;100.00;101951.81;5007115;28;20030;-90
2022/07/22 01:40:34;;;;;;;9.35;5.13;;;;;;;15.01;100.00;101941.09;5005519;28;20027;-92
2022/07/22 01:43:00;;;;;;;13.48;4.82;;;;;;;14.92;100.00;101940.59;4995705;28;20134;-90
2022/07/22 01:45:26;;;;;;;11.10;4.88;;;;;;;14.91;100.00;101957.63;5010498;28;20117;-91
2022/07/22 01:47:51;;;;;;;9.18;4.00;;;;;;;14.87;100.00;101950.69;5005349;28;20108;-92
2022/07/22 01:50:16;;;;;;;10.32;4.70;;;;;;;14.88;100.00;101946.19;5009697;28;20076;-91
2022/07/22 01:52:42;;;;;;;12.68;4.75;;;;;;;14.86;100.00;101948.94;5004269;28;20030;-90
2022/07/22 01:55:09;;;;;;;11.23;4.70;;;;;;;14.84;100.00;101952.63;5003348;28;20085;-90
2022/07/22 01:57:36;;;;;;;9.75;4.75;;;;;;;14.79;100.00;101954.69;5007519;28;20022;-90
2022/07/22 02:00:05;;;;;;;10.93;4.82;;;;;;;14.72;100.00;101947.94;5005465;28;20068;-91
2022/07/22 02:02:30;;;;;;;10.52;5.05;;;;;;;14.68;100.00;101956.13;5009569;28;20029;-90
2022/07/22 02:04:56;;;;;;;7.97;4.18;;;;;;;14.67;100.00;101951.72;5006636;28;20159;-91
2022/07/22 02:07:21;;;;;;;8.80;4.20;;;;;;;14.67;100.00;101948.13;5005855;28;20376;-90
2022/07/22 02:09:46;;;;;;;13.45;4.82;;;;;;;14.65;100.00;101945.53;5002666;28;20019;-92
2022/07/22 02:12:11;;;;;;;10.27;4.68;;;;;;;14.68;100.00;101944.53;4996773;28;20029;-91
2022/07/22 02:14:37;;;;;;;12.57;4.75;;;;;;;14.71;100.00;101949.72;5002293;28;20397;-90
2022/07/22 02:17:02;;;;;;;11.40;4.68;;;;;;;14.66;100.00;101941.06;5002274;28;20049;-91
2022/07/22 02:19:28;;;;;;;9.55;4.50;;;;;;;14.69;100.00;101940.91;5004356;28;20033;-90
2022/07/22 02:21:53;;;;;;;8.70;4.78;;;;;;;14.74;100.00;101946.88;4999716;28;20057;-91
2022/07/22 02:24:18;;;;;;;8.73;4.57;;;;;;;14.72;100.00;101943.44;5003312;28;20029;-92
2022/07/22 02:26:43;;;;;;;8.38;4.60;;;;;;;14.75;100.00;101947.75;5008010;28;20037;-90
2022/07/22 02:29:09;;;;;;;9.85;5.05;;;;;;;14.74;100.00;101933.50;5008274;28;20480;-90
2022/07/22 02:31:34;;;;;;;11.30;5.40;;;;;;;14.72;100.00;101930.03;5007803;28;20033;-91
2022/07/22 02:33:59;;;;;;;10.60;4.55;;;;;;;14.76;100.00;101947.69;4993804;28;20034;-92
2022/07/22 02:36:25;;;;;;;14.38;6.00;;;;;;;14.79;100.00;101947.53;5007640;28;20125;-91
2022/07/22 02:38:50;;;;;;;13.07;5.38;;;;;;;14.81;100.00;101944.78;4997167;28;20022;-90
2022/07/22 02:41:15;;;;;;;11.32;5.35;;;;;;;14.78;100.00;101939.56;5008387;28;20372;-91
2022/07/22 02:43:41;;;;;;;13.23;4.70;;;;;;;14.82;100.00;101942.00;5001199;28;20030;-91
2022/07/22 02:46:06;;;;;;;10.82;4.72;;;;;;;14.87;100.00;101939.09;5003014;28;20018;-91
2022/07/22 02:48:33;;;;;;;12.40;5.18;;;;;;;14.88;100.00;101936.34;5001569;28;20026;-90
2022/07/22 02:50:58;;;;;;;11.18;4.90;;;;;;;14.92;100.00;101937.03;5006944;28;20026;-90
2022/07/22 02:53:23;;;;;;;8.57;4.97;;;;;;;14.99;100.00;101932.22;5002295;28;20548;-91
2022/07/22 02:55:49;;;;;;;12.13;4.70;;;;;;;14.95;100.00;101931.53;4999041;28;20647;-90
2022/07/22 02:58:14;;;;;;;10.93;4.90;;;;;;;14.96;100.00;101925.19;5000884;28;20022;-90
2022/07/22 03:00:39;;;;;;;10.35;4.63;;;;;;;14.90;100.00;101923.72;5007821;28;20022;-90
2022/07/22 03:03:05;;;;;;;9.38;4.82;;;;;;;15.00;100.00;101925.91;5017742;28;20030;-90
2022/07/22 03:05:30;;;;;;;14.00;5.47;;;;;;;15.01;100.00;101920.50;5029218;28;20034;-91
2022/07/22 03:07:55;;;;;;;11.45;5.32;;;;;;;15.02;100.00;101922.22;5013820;28;20049;-90
2022/07/22 03:10:21;;;;;;;11.40;5.32;;;;;;;14.99;100.00;101914.34;5003568;28;20027;-91
2022/07/22 03:12:46;;;;;;;11.98;5.15;;;;;;;14.95;100.00;101915.44;5007277;28;20964;-90
2022/07/22 03:15:12;;;;;;;11.07;5.15;;;;;;;14.97;100.00;101910.00;5023474;28;20054;-91
2022/07/22 03:17:37;;;;;;;12.75;5.18;;;;;;;14.96;100.00;101917.16;5020283;28;20069;-90
2022/07/22 03:20:04;;;;;;;10.27;5.20;;;;;;;14.95;100.00;101910.94;5012788;28;20045;-89
2022/07/22 03:22:29;;;;;;;13.85;5.07;;;;;;;14.93;100.00;101914.66;5016561;28;20034;-92
2022/07/22 03:24:55;;;;;;;11.73;5.25;;;;;;;14.97;100.00;101913.56;5015172;28;20088;-89
2022/07/22 03:27:20;;;;;;;13.20;5.30;;;;;;;14.90;100.00;101913.00;5022665;28;20056;-90
2022/07/22 03:29:45;;;;;;;12.70;5.00;;;;;;;14.94;100.00;101914.56;5019063;28;20037;-89
2022/07/22 03:32:10;;;;;;;11.55;5.03;;;;;;;14.87;100.00;101907.78;5020397;28;20033;-90
2022/07/22 03:34:36;;;;;;;13.80;5.63;;;;;;;14.92;100.00;101915.59;5021423;28;20030;-90
2022/07/22 03:37:02;;;;;;;10.73;5.15;;;;;;;14.92;100.00;101910.22;5025825;28;20041;-90
2022/07/22 03:39:27;;;;;;;12.18;5.45;;;;;;;14.88;100.00;101898.81;5015421;28;20021;-91
2022/07/22 03:41:52;;;;;;;12.20;5.53;;;;;;;14.91;100.00;101909.38;5010420;28;20026;-90
2022/07/22 03:44:18;;;;;;;8.70;4.85;;;;;;;14.93;100.00;101911.97;5018553;28;20030;-89
2022/07/22 03:46:43;;;;;;;16.15;6.05;;;;;;;14.92;100.00;101916.47;5007382;28;20471;-89
2022/07/22 03:49:08;;;;;;;12.45;5.65;;;;;;;14.93;100.00;101911.97;5017036;28;20023;-91
2022/07/22 03:51:34;;;;;;;14.40;5.60;;;;;;;14.97;100.00;101926.09;5035072;23;20074;-91
2022/07/22 03:53:59;;;;;;;12.00;5.63;;;;;;;15.00;100.00;101923.25;4987767;28;20420;-91
2022/07/22 03:56:24;;;;;;;12.05;5.20;;;;;;;14.98;100.00;101914.41;4976101;28;20447;-91
2022/07/22 03:58:49;;;;;;;13.60;5.90;;;;;;;15.00;100.00;101925.91;4993624;28;20294;-91
2022/07/22 04:01:15;;;;;;;15.85;6.03;;;;;;;15.05;100.00;101930.13;4988618;28;20604;-90
2022/07/22 04:03:40;;;;;;;13.75;5.70;;;;;;;15.06;100.00;101925.63;4982367;28;20027;-91
2022/07/22 04:06:06;;;;;;;11.70;5.68;;;;;;;15.07;100.00;101930.03;4988077;28;20030;-92
2022/07/22 04:08:31;;;;;;;15.80;6.03;;;;;;;15.04;100.00;101922.13;4994824;28;20053;-89
2022/07/22 04:10:57;;;;;;;12.68;5.57;;;;;;;14.98;100.00;101917.97;4999188;28;20464;-90
2022/07/22 04:13:22;;;;;;;11.43;6.00;;;;;;;15.08;100.00;101929.94;4988724;28;20034;-91
2022/07/22 04:15:47;;;;;;;12.57;6.22;;;;;;;15.13;100.00;101929.69;4986582;28;20037;-91
2022/07/22 04:18:13;;;;;;;14.13;6.03;;;;;;;15.12;100.00;101925.28;4989948;28;20037;-91
2022/07/22 04:20:38;;;;;;;11.38;5.63;;;;;;;15.17;100.00;101931.25;4979045;28;20030;-90
2022/07/22 04:23:03;;;;;;;11.25;5.88;;;;;;;15.19;100.00;101934.75;5001444;28;20561;-90
2022/07/22 04:25:29;;;;;;;13.38;5.95;;;;;;;15.24;100.00;101946.09;4977001;28;20035;-90
2022/07/22 04:27:54;;;;;;;10.75;6.22;;;;;;;15.23;100.00;101930.94;4976372;28;20050;-90
2022/07/22 04:30:19;;;;;;;11.60;5.68;;;;;;;15.24;100.00;101935.34;4983557;28;20088;-91
2022/07/22 04:32:45;;;;;;;13.40;5.93;;;;;;;15.21;99.85;101924.78;4983333;28;20297;-90
2022/07/22 04:35:10;;;;;;;14.50;6.03;;;;;;;15.28;99.86;101934.25;4981372;28;20030;-91
2022/07/22 04:37:35;;;;;;;12.07;6.10;;;;;;;15.32;100.00;101929.59;4979634;28;20030;-91
2022/07/22 04:40:01;;;;;;;14.05;5.80;;;;;;;15.37;99.30;101932.88;4978690;28;20022;-90
2022/07/22 04:42:26;;;;;;;12.68;5.78;;;;;;;15.37;99.42;101938.25;4983892;28;20035;-90
2022/07/22 04:44:51;;;;;;;16.13;9.15;;;;;;;15.39;98.46;101931.88;4977999;28;20064;-90
2022/07/22 04:47:17;;;;;;;15.45;7.10;;;;;;;15.48;98.50;101932.31;5001982;28;20031;-89
2022/07/22 04:49:42;;;;;;;20.77;12.32;;;;;;;15.50;99.28;101935.78;4993239;28;20120;-89
2022/07/22 04:52:08;;;;;;;14.32;8.77;;;;;;;15.54;98.55;101926.59;4984364;28;20447;-90
2022/07/22 04:54:35;;;;;;;12.07;6.70;;;;;;;15.56;97.57;101927.41;4973271;28;20034;-90
2022/07/22 04:57:00;;;;;;;11.30;6.72;;;;;;;15.62;97.45;101929.75;4976495;28;20089;-90
2022/07/22 04:59:25;;;;;;;11.27;6.75;;;;;;;15.60;97.24;101915.56;4985080;28;20038;-90
2022/07/22 05:01:50;;;;;;;13.10;6.53;;;;;;;15.65;96.42;101919.75;4978787;28;20194;-89
2022/07/22 05:04:16;;;;;;;15.85;8.80;;;;;;;15.73;97.86;101918.47;4987737;28;20035;-90
2022/07/22 05:06:41;;;;;;;68.80;43.90;;;;;;;15.80;96.93;101920.72;4989895;28;20042;-90
2022/07/22 05:09:07;;;;;;;21.67;11.38;;;;;;;15.80;97.39;101912.66;4998692;28;20061;-90
2022/07/22 05:11:32;;;;;;;15.02;7.43;;;;;;;15.90;96.82;101913.00;5000296;28;20034;-88
2022/07/22 05:13:57;;;;;;;12.85;6.68;;;;;;;15.93;94.25;101920.91;4987212;28;20033;-90
2022/07/22 05:16:23;;;;;;;13.93;6.68;;;;;;;15.93;93.51;101916.41;4985160;28;20058;-89
2022/07/22 05:18:48;;;;;;;11.68;6.50;;;;;;;15.94;92.25;101909.19;4993927;28;20498;-89
2022/07/22 05:21:13;;;;;;;12.35;6.72;;;;;;;16.04;91.97;101917.59;4988207;28;20074;-89
2022/07/22 05:23:38;;;;;;;12.13;6.70;;;;;;;16.07;94.19;101898.63;4983912;28;20150;-89
2022/07/22 05:26:05;;;;;;;9.63;6.22;;;;;;;16.10;92.58;101910.06;4990551;28;20026;-89
2022/07/22 05:28:30;;;;;;;18.42;7.03;;;;;;;16.14;92.42;101916.13;4988305;28;20014;-89
2022/07/22 05:30:55;;;;;;;10.70;5.72;;;;;;;16.28;91.58;101916.19;4989954;28;20057;-90
2022/07/22 05:33:21;;;;;;;12.20;6.45;;;;;;;16.36;91.33;101915.75;4989900;28;20077;-93
2022/07/22 05:35:46;;;;;;;14.25;6.20;;;;;;;16.42;93.16;101921.63;5000039;28;20093;-90
2022/07/22 05:38:11;;;;;;;10.98;5.80;;;;;;;16.51;91.26;101913.97;4980045;28;20041;-90
2022/07/22 05:40:37;;;;;;;12.63;5.80;;;;;;;16.57;90.99;101921.69;4992061;28;20034;-91
2022/07/22 05:43:02;;;;;;;9.70;5.47;;;;;;;16.54;90.30;101909.28;4986998;28;20031;-89
2022/07/22 05:45:27;;;;;;;9.88;5.18;;;;;;;16.64;89.94;101918.56;4990276;28;20022;-89
2022/07/22 05:47:52;;;;;;;12.18;5.90;;;;;;;16.76;90.90;101917.00;4990578;28;20034;-90
2022/07/22 05:50:18;;;;;;;9.98;5.50;;;;;;;16.74;87.81;101904.59;4991604;28;20031;-89
2022/07/22 05:52:43;;;;;;;17.75;6.05;;;;;;;16.76;88.58;101918.78;4992403;28;20558;-89
2022/07/22 05:55:09;;;;;;;10.10;5.88;;;;;;;16.74;88.48;101913.53;4994770;28;20507;-89
2022/07/22 05:57:35;;;;;;;14.40;5.57;;;;;;;16.91;88.56;101920.56;4991246;28;20035;-90
2022/07/22 06:00:01;;;;;;;11.65;4.90;;;;;;;17.07;86.61;101924.06;4990954;28;20060;-88
2022/07/22 06:02:26;;;;;;;11.32;5.38;;;;;;;17.22;86.38;101926.75;5008774;28;20032;-88
2022/07/22 06:04:53;;;;;;;11.32;5.80;;;;;;;17.38;86.20;101914.09;5002339;28;20099;-90
2022/07/22 06:07:18;;;;;;;12.07;5.75;;;;;;;17.59;85.15;101911.88;5004738;28;20057;-89
2022/07/22 06:09:43;;;;;;;11.10;5.53;;;;;;;17.74;86.58;101918.13;4987080;28;20069;-89
2022/07/22 06:12:09;;;;;;;9.80;5.00;;;;;;;17.87;83.95;101930.72;4993631;28;20090;-89
2022/07/22 06:14:36;;;;;;;20.15;10.88;;;;;;;17.92;80.12;101923.22;4995339;28;20515;-89
2022/07/22 06:17:01;;;;;;;12.80;5.15;;;;;;;17.87;80.62;101925.34;4990473;28;20080;-88
2022/07/22 06:19:29;;;;;;;10.50;4.70;;;;;;;17.87;80.60;101925.34;4992765;28;20464;-89
2022/07/22 06:21:54;;;;;;;10.32;5.10;;;;;;;17.97;82.39;101935.50;4997912;28;20023;-88
2022/07/22 06:24:19;;;;;;;7.63;4.05;;;;;;;17.97;78.79;101933.69;4999269;28;20292;-89
2022/07/22 06:26:44;;;;;;;7.13;3.63;;;;;;;17.92;78.60;101925.91;5003525;28;20113;-90
2022/07/22 06:29:10;;;;;;;10.00;4.07;;;;;;;17.94;80.42;101930.34;5005744;28;20022;-89
2022/07/22 06:31:35;;;;;;;10.07;3.75;;;;;;;17.94;78.38;101930.34;4995486;28;20027;-89
2022/07/22 06:34:05;;;;;;;6.68;3.53;;;;;;;17.90;79.11;101927.00;4989582;28;20034;-89
2022/07/22 06:36:33;;;;;;;6.07;2.60;;;;;;;17.86;74.60;101934.41;4997980;28;20045;-89
2022/07/22 06:38:58;;;;;;;7.05;2.60;;;;;;;17.76;76.22;101919.78;5000481;28;20031;-89
2022/07/22 06:41:24;;;;;;;4.22;2.25;;;;;;;17.70;73.57;101920.16;5007875;28;20050;-89
2022/07/22 06:43:49;;;;;;;4.47;2.47;;;;;;;17.68;74.44;101922.06;5006068;28;20030;-88
2022/07/22 06:46:15;;;;;;;6.50;2.72;;;;;;;17.74;76.92;101924.41;4991080;28;20031;-89
2022/07/22 06:48:40;;;;;;;9.95;4.13;;;;;;;17.86;75.14;101925.44;5014181;28;20013;-89
2022/07/22 06:51:05;;;;;;;4.60;2.13;;;;;;;17.98;73.76;101926.50;5001384;28;20253;-88
2022/07/22 06:53:32;;;;;;;3.83;2.10;;;;;;;18.16;72.18;101923.44;5012713;28;20026;-89
2022/07/22 06:55:57;;;;;;;4.40;1.90;;;;;;;18.18;70.70;101926.03;5020884;28;20034;-87
2022/07/22 06:58:23;;;;;;;5.50;2.22;;;;;;;18.18;72.01;101926.03;5013136;28;20061;-88
2022/07/22 07:00:48;;;;;;;6.88;2.33;;;;;;;18.07;72.72;101924.06;5013431;28;20049;-87
2022/07/22 07:03:14;;;;;;;3.22;2.03;;;;;;;18.02;73.17;101925.34;5001177;28;20038;-87
2022/07/22 07:05:39;;;;;;;2.08;1.85;;;;;;;18.05;69.75;101931.34;5008720;28;20047;-88
2022/07/22 07:08:05;;;;;;;4.10;1.80;;;;;;;18.06;68.90;101927.72;4978829;28;20065;-88
2022/07/22 07:10:30;;;;;;;3.22;1.70;;;;;;;18.19;71.87;101922.41;4982452;28;20022;-88
2022/07/22 07:12:57;;;;;;;3.35;1.90;;;;;;;18.41;70.82;101916.44;4997566;28;20028;-88
2022/07/22 07:15:23;;;;;;;5.13;2.42;;;;;;;18.30;67.41;101903.66;4994094;28;20026;-88
2022/07/22 07:17:48;;;;;;;3.85;2.08;;;;;;;18.32;70.11;101917.06;4990544;28;20140;-88
2022/07/22 07:20:13;;;;;;;2.90;1.63;;;;;;;18.23;69.34;101907.75;5003120;28;20042;-87
2022/07/22 07:22:39;;;;;;;5.78;2.47;;;;;;;18.22;69.73;101906.00;4991344;28;20484;-87
2022/07/22 07:25:06;;;;;;;4.97;2.50;;;;;;;18.21;71.21;101914.19;4993580;28;20504;-87
2022/07/22 07:27:32;;;;;;;5.50;2.50;;;;;;;18.12;71.28;101915.69;5010870;28;20038;-87
2022/07/22 07:29:57;;;;;;;7.57;2.70;;;;;;;18.19;72.16;101921.53;4998834;28;20094;-87
2022/07/22 07:32:22;;;;;;;5.90;2.58;;;;;;;18.23;69.87;101915.84;4990752;28;20030;-87
2022/07/22 07:34:48;;;;;;;4.20;2.03;;;;;;;18.30;68.34;101909.06;4988411;28;20030;-87
2022/07/22 07:37:13;;;;;;;5.18;2.38;;;;;;;18.60;69.86;101911.56;4990922;28;20038;-86
2022/07/22 07:39:39;;;;;;;4.10;1.90;;;;;;;18.76;66.11;101905.13;4981958;28;20524;-86
2022/07/22 07:42:04;;;;;;;5.45;1.60;;;;;;;18.80;63.32;101907.50;4986204;28;20030;-86
2022/07/22 07:44:29;;;;;;;4.70;1.67;;;;;;;19.06;64.76;101902.13;4988259;28;20029;-87
2022/07/22 07:46:55;;;;;;;3.08;1.50;;;;;;;19.60;61.16;101902.75;5000553;28;20480;-86
2022/07/22 07:49:20;;;;;;;6.35;2.50;;;;;;;20.32;58.61;101899.34;4989455;28;20030;-86
2022/07/22 07:51:45;;;;;;;2.88;1.80;;;;;;;21.28;60.50;101900.00;4989036;28;20042;-86
2022/07/22 07:54:11;;;;;;;3.22;1.45;;;;;;;22.12;53.75;101905.88;4990598;28;20207;-86
2022/07/22 07:56:36;;;;;;;4.47;2.00;;;;;;;22.47;55.29;101900.22;4978210;28;20049;-86
2022/07/22 07:59:02;;;;;;;3.30;2.10;;;;;;;22.74;53.00;101897.03;4987478;28;20113;-86
2022/07/22 08:01:27;;;;;;;2.33;1.70;;;;;;;23.13;51.84;101904.59;4984547;28;20384;-87
2022/07/22 08:03:53;;;;;;;3.63;2.17;;;;;;;22.99;49.84;101901.25;4987047;28;20021;-87
2022/07/22 08:06:18;;;;;;;3.22;2.20;;;;;;;22.05;51.52;101910.94;5009413;28;20045;-86
2022/07/22 08:08:43;;;;;;;3.13;1.70;;;;;;;22.57;51.96;101900.28;4981252;28;20139;-89
2022/07/22 08:11:09;;;;;;;3.10;1.70;;;;;;;23.56;49.52;101904.38;4996963;28;20077;-87
2022/07/22 08:13:34;;;;;;;3.40;1.65;;;;;;;24.19;47.83;101913.16;4987344;28;20057;-88
2022/07/22 08:16:00;;;;;;;4.68;2.00;;;;;;;24.54;46.67;101909.09;4978155;28;20039;-87
2022/07/22 08:18:26;;;;;;;2.63;1.70;;;;;;;24.05;46.63;101914.44;4989313;28;20107;-87
2022/07/22 08:20:52;;;;;;;4.43;2.10;;;;;;;23.35;49.02;101909.84;4988218;28;20165;-87
2022/07/22 08:23:20;;;;;;;6.13;2.00;;;;;;;23.31;50.55;101911.13;4986072;28;20543;-87
2022/07/22 08:25:46;;;;;;;4.63;2.30;;;;;;;23.92;48.58;101908.41;5004803;28;20128;-89
2022/07/22 08:28:12;;;;;;;5.20;2.78;;;;;;;24.55;48.02;101908.09;4988824;28;20030;-87
2022/07/22 08:30:39;;;;;;;6.20;3.00;;;;;;;25.07;45.67;101908.59;5000993;28;20054;-88
2022/07/22 08:33:06;;;;;;;2.92;2.20;;;;;;;25.40;45.04;101917.28;4988616;28;20400;-88
2022/07/22 08:35:31;;;;;;;3.50;2.17;;;;;;;25.85;44.57;101911.09;5001863;28;20034;-86
2022/07/22 08:37:58;;;;;;;4.70;2.40;;;;;;;26.27;44.82;101904.06;4991691;28;20088;-88
2022/07/22 08:40:24;;;;;;;5.57;2.13;;;;;;;26.74;41.56;101903.81;4989736;28;20022;-87
2022/07/22 08:42:50;;;;;;;3.83;2.00;;;;;;;26.89;40.61;101900.53;4992211;28;20038;-85
2022/07/22 08:45:17;;;;;;;3.03;1.73;;;;;;;26.08;42.10;101901.44;4972851;28;20029;-86
2022/07/22 08:47:47;;;;;;;3.95;1.98;;;;;;;25.56;43.18;101895.69;4977086;28;20042;-86
2022/07/22 08:50:12;;;;;;;3.92;2.05;;;;;;;25.33;45.99;101893.34;4984588;28;20046;-86
2022/07/22 08:52:37;;;;;;;5.38;1.92;;;;;;;25.26;44.19;101896.81;4978754;28;20030;-86
2022/07/22 08:55:07;;;;;;;4.18;1.92;;;;;;;25.07;44.74;101897.69;5002175;28;20036;-87
2022/07/22 08:57:33;;;;;;;2.83;2.25;;;;;;;25.21;43.82;101889.09;4984418;28;20451;-86
2022/07/22 09:00:00;;;;;;;3.90;2.60;;;;;;;25.51;44.92;101896.16;4989286;28;20025;-86
2022/07/22 09:02:26;;;;;;;4.43;2.83;;;;;;;25.22;45.28;101889.94;4986811;28;20065;-87
2022/07/22 09:04:58;;;;;;;3.63;2.30;;;;;;;24.71;46.08;101897.47;5003309;28;20025;-87
2022/07/22 09:07:34;;;;;;;5.40;2.08;;;;;;;24.30;47.32;101904.88;4974914;28;20033;-87
2022/07/22 09:10:00;;;;;;;4.50;1.98;;;;;;;24.18;46.61;101897.84;4992811;28;20061;-86
2022/07/22 09:12:29;;;;;;;4.72;2.30;;;;;;;24.03;47.19;101896.53;4971823;28;20121;-84
2022/07/22 09:14:57;;;;;;;3.72;2.13;;;;;;;24.69;46.23;101893.16;4973121;28;20034;-89
2022/07/22 09:17:38;;;;;;;5.00;2.30;;;;;;;25.59;44.20;101888.06;4980921;28;20026;-87
2022/07/22 09:20:17;;;;;;;3.50;2.13;;;;;;;25.74;44.80;101880.22;4992083;28;20112;-89
2022/07/22 09:22:48;;;;;;;3.38;2.00;;;;;;;26.13;42.94;101887.38;4980266;28;20604;-84
2022/07/22 09:25:22;;;;;;;4.80;2.10;;;;;;;26.98;40.86;101881.31;4977547;28;20073;-88
2022/07/22 09:27:50;;;;;;;5.35;2.20;;;;;;;26.47;40.25;101877.50;4976420;28;20447;-88
2022/07/22 09:30:36;;;;;;;6.80;2.67;;;;;;;25.79;44.48;101888.88;4977064;28;20503;-92
2022/07/22 09:33:02;;;;;;;16.98;2.90;;;;;;;25.14;45.01;101885.25;4994975;28;20066;-86
2022/07/22 09:35:28;;;;;;;10.18;2.78;;;;;;;25.65;42.97;101881.16;4972798;28;20038;-85
2022/07/22 09:38:00;;;;;;;7.15;2.50;;;;;;;26.95;41.85;101872.56;4988334;28;20030;-89
2022/07/22 09:40:28;;;;;;;5.63;2.10;;;;;;;27.30;37.83;101864.28;4982745;28;20034;-89
2022/07/22 09:42:55;;;;;;;5.65;2.53;;;;;;;26.73;40.22;101872.06;5003212;28;20081;-88
2022/07/22 09:45:22;;;;;;;4.95;2.40;;;;;;;25.93;39.80;101868.41;4990281;28;20117;-89
2022/07/22 09:47:49;;;;;;;5.35;2.40;;;;;;;25.22;43.28;101862.69;5003528;28;20045;-89
2022/07/22 09:50:16;;;;;;;4.88;2.42;;;;;;;26.33;41.06;101854.31;4980743;28;20034;-88
2022/07/22 09:52:43;;;;;;;6.35;2.60;;;;;;;27.83;37.13;101875.13;4986484;28;20038;-88
2022/07/22 09:55:08;;;;;;;4.22;2.20;;;;;;;29.49;34.20;101872.06;4980281;28;20031;-86
2022/07/22 09:57:34;;;;;;;3.92;2.00;;;;;;;30.76;32.71;101870.78;4987607;28;20041;-89
2022/07/22 09:59:59;;;;;;;3.88;2.63;;;;;;;31.11;29.82;101869.22;4994914;28;20038;-89
2022/07/22 10:02:26;;;;;;;5.15;2.00;;;;;;;31.43;30.94;101865.25;4985720;28;20341;-89
2022/07/22 10:04:53;;;;;;;2.97;2.03;;;;;;;31.38;31.16;101870.47;4988972;28;20483;-89
2022/07/22 10:07:20;;;;;;;4.43;2.40;;;;;;;31.83;30.36;101865.78;4987730;28;20373;-89
2022/07/22 10:09:46;;;;;;;3.30;2.50;;;;;;;33.13;30.20;101870.25;5012210;28;20475;-90
2022/07/22 10:12:12;;;;;;;6.88;2.45;;;;;;;34.26;26.45;101876.28;4988245;28;20121;-89
2022/07/22 10:14:37;;;;;;;6.03;2.50;;;;;;;34.78;25.61;101867.22;4988756;28;20590;-87
2022/07/22 10:17:03;;;;;;;3.13;2.25;;;;;;;34.42;26.51;101868.44;4989435;28;20018;-88
2022/07/22 10:19:29;;;;;;;5.38;2.50;;;;;;;34.55;26.44;101861.25;4986566;28;20026;-88
2022/07/22 10:21:54;;;;;;;4.72;2.22;;;;;;;34.86;26.60;101864.19;4988333;28;20545;-88
2022/07/22 10:24:23;;;;;;;5.70;2.58;;;;;;;34.48;25.36;101872.28;4989671;28;20381;-88
2022/07/22 10:26:56;;;;;;;3.55;2.05;;;;;;;32.36;28.98;101882.06;4992391;28;20030;-88
2022/07/22 10:29:38;;;;;;;7.45;3.10;;;;;;;30.16;32.07;101883.41;4981713;28;20096;-87
2022/07/22 10:32:22;;;;;;;4.03;2.78;;;;;;;28.45;35.24;101881.09;4985710;28;20101;-86
2022/07/22 10:35:06;;;;;;;5.97;2.50;;;;;;;27.33;37.31;101873.16;4992296;28;20529;-86
2022/07/22 10:37:34;;;;;;;7.05;2.80;;;;;;;26.22;39.16;101868.19;5014786;28;20280;-87
2022/07/22 10:40:20;;;;;;;7.15;2.80;;;;;;;25.89;40.81;101874.31;4992298;28;20054;-86
2022/07/22 10:43:01;;;;;;;6.57;2.80;;;;;;;25.38;41.08;101883.88;4991018;28;20034;-87
2022/07/22 10:45:27;;;;;;;4.72;2.47;;;;;;;25.22;43.16;101879.06;4997982;28;20113;-88
2022/07/22 10:47:57;;;;;;;4.93;2.80;;;;;;;25.17;41.56;101873.19;4990660;28;20121;-87
2022/07/22 10:50:38;;;;;;;4.30;2.90;;;;;;;26.42;40.15;101870.75;5019542;28;20046;-88
2022/07/22 10:53:05;;;;;;;4.78;2.78;;;;;;;27.41;39.88;101868.59;5009146;28;20034;-87
2022/07/22 10:55:31;;;;;;;5.35;2.55;;;;;;;28.76;34.69;101859.34;5015970;28;20089;-87
2022/07/22 10:57:57;;;;;;;4.65;2.50;;;;;;;30.24;32.40;101860.53;5015704;28;20089;-86
2022/07/22 11:00:22;;;;;;;4.95;2.90;;;;;;;30.03;31.25;101858.44;5009885;28;20041;-87
2022/07/22 11:02:48;;;;;;;4.32;2.55;;;;;;;29.48;35.07;101853.88;5007333;28;20014;-87
2022/07/22 11:05:25;;;;;;;5.60;2.60;;;;;;;29.03;36.55;101849.91;5015555;28;20038;-87
2022/07/22 11:07:50;;;;;;;5.25;2.42;;;;;;;28.57;35.43;101846.00;5007347;28;20115;-86
2022/07/22 11:10:20;;;;;;;4.65;2.50;;;;;;;28.64;37.09;101853.38;5010721;28;20026;-87
2022/07/22 11:12:47;;;;;;;5.30;2.83;;;;;;;28.38;35.98;101847.19;4994087;28;20061;-88